LFBU/ANG METAR and TAF weather

Enter ICAO airport designator
Station Type Date Time Source
LFBU METAR 2019/08/25 18:00 UTC NOAA

LFBU 251800Z AUTO 32005KT CAVOK 30/16 Q1017 NOSIG


Station Type Date Time Source
LFBU Decoded METAR 2019/08/25 18:00 UTC NOAA

Station name not available
Aug 25, 2019 - 02:00 PM EDT / 2019.08.25 1800 UTC
Wind: from the NW (320 degrees) at 6 MPH (5 KT):0
Visibility: greater than 7 mile(s):0
Temperature: 86 F (30 C)
Dew Point: 60 F (16 C)
Relative Humidity: 42%
Pressure (altimeter): 30.03 in. Hg (1017 hPa)
ob: LFBU 251800Z AUTO 32005KT CAVOK 30/16 Q1017 NOSIG
cycle: 18

Station Type Date Time Source
LFBU TAF 2019/08/25 18:00 UTC NOAA

TAF LFBU 251700Z 2518/2618 33005KT CAVOK
FM260900 14005KT CAVOK
FM261400 20006KT CAVOK

Example: see airport list